Back to the list

BENTO from the 19/11/2004 to the 04/12/2004

Lat °S Lon °E Intensity Pressure hPa MeanMaxWind Gusts Type Date
6.06 77.89 1 1007 20 kt, 37 km/h 30 kt, 56 km/h Area of disturbed weather 19/11/2004 1200
6.47 77.99 1.5 1006 20 kt, 37 km/h 30 kt, 56 km/h Tropical disturbance 19/11/2004 1800
6.89 78.08 1.5 1005 20 kt, 37 km/h 30 kt, 56 km/h Tropical disturbance 20/11/2004 0000
7.32 78.08 2 1004 25 kt, 46 km/h 35 kt, 65 km/h Tropical disturbance 20/11/2004 0600
7.83 78.12 2 1003 25 kt, 46 km/h 35 kt, 65 km/h Tropical disturbance 20/11/2004 1200
7.94 78.52 2 1002 25 kt, 46 km/h 35 kt, 65 km/h Tropical disturbance 20/11/2004 1800
7.98 78.78 2.5 1000 30 kt, 56 km/h 40 kt, 74 km/h Tropical depression 21/11/2004 0000
8 79.05 2.5 998 33 kt, 61 km/h 45 kt, 83 km/h Tropical depression 21/11/2004 0600
8.22 79.05 2.5 996 35 kt, 65 km/h 50 kt, 93 km/h Moderate tropical storm 21/11/2004 1200
8.64 78.72 3 992 43 kt, 80 km/h 60 kt, 111 km/h Moderate tropical storm 21/11/2004 1800
8.73 78.38 3.5 987 50 kt, 93 km/h 70 kt, 130 km/h Severe tropical storm 22/11/2004 0000
8.9 77.79 4 982 55 kt, 102 km/h 75 kt, 139 km/h Severe tropical storm 22/11/2004 0600
8.72 77.15 4.5 972 65 kt, 120 km/h 90 kt, 167 km/h Tropical cyclone 22/11/2004 1200
8.41 76.67 5.5 950 85 kt, 157 km/h 120 kt, 222 km/h Tropical cyclone 22/11/2004 1800
8.26 76.25 6 932 100 kt, 185 km/h 140 kt, 259 km/h Intense tropical cyclone 23/11/2004 0000
8.34 75.81 6.5 920 110 kt, 204 km/h 155 kt, 287 km/h Intense tropical cyclone 23/11/2004 0600
8.5 75.15 6.5 915 115 kt, 213 km/h 160 kt, 296 km/h Intense tropical cyclone 23/11/2004 1200
8.47 74.7 6.5 915 115 kt, 213 km/h 160 kt, 296 km/h Intense tropical cyclone 23/11/2004 1800
8.9 74.25 6.5 920 110 kt, 204 km/h 155 kt, 287 km/h Intense tropical cyclone 24/11/2004 0000
9.23 73.86 6 928 105 kt, 194 km/h 150 kt, 278 km/h Intense tropical cyclone 24/11/2004 0600
9.55 73.42 6 930 105 kt, 194 km/h 150 kt, 278 km/h Intense tropical cyclone 24/11/2004 1200
9.75 73.28 6 935 100 kt, 185 km/h 140 kt, 259 km/h Intense tropical cyclone 24/11/2004 1800
10.04 73.36 5.5 945 90 kt, 167 km/h 125 kt, 232 km/h Intense tropical cyclone 25/11/2004 0000
10.65 73.46 5 958 80 kt, 148 km/h 115 kt, 213 km/h Tropical cyclone 25/11/2004 0600
11.47 73.58 5 962 75 kt, 139 km/h 105 kt, 194 km/h Tropical cyclone 25/11/2004 1200
12.03 73.8 4.5 968 70 kt, 130 km/h 100 kt, 185 km/h Tropical cyclone 25/11/2004 1800
12.41 73.96 4.5 972 65 kt, 120 km/h 90 kt, 167 km/h Tropical cyclone 26/11/2004 0000
12.89 74.18 4 978 60 kt, 111 km/h 85 kt, 157 km/h Severe tropical storm 26/11/2004 0600
13.62 74.66 4 980 57 kt, 106 km/h 80 kt, 148 km/h Severe tropical storm 26/11/2004 1200
14.09 75.05 4 978 60 kt, 111 km/h 85 kt, 157 km/h Severe tropical storm 26/11/2004 1800
14.62 75.63 4.5 968 70 kt, 130 km/h 100 kt, 185 km/h Tropical cyclone 27/11/2004 0000
15.11 75.92 4.5 968 70 kt, 130 km/h 100 kt, 185 km/h Tropical cyclone 27/11/2004 0600
15.41 76.35 4.5 972 65 kt, 120 km/h 90 kt, 167 km/h Tropical cyclone 27/11/2004 1200
15.59 76.93 4 978 60 kt, 111 km/h 85 kt, 157 km/h Severe tropical storm 27/11/2004 1800
15.74 77.41 3.5 982 55 kt, 102 km/h 75 kt, 139 km/h Severe tropical storm 28/11/2004 0000
16.03 77.37 3.5 988 50 kt, 93 km/h 70 kt, 130 km/h Severe tropical storm 28/11/2004 0600
16.07 77.2 3.5 990 45 kt, 83 km/h 65 kt, 120 km/h Moderate tropical storm 28/11/2004 1200
16.16 76.84 3 992 43 kt, 80 km/h 60 kt, 111 km/h Moderate tropical storm 28/11/2004 1800
16.39 76.4 3 994 40 kt, 74 km/h 55 kt, 102 km/h Moderate tropical storm 29/11/2004 0000
16.51 75.87 2.5 997 35 kt, 65 km/h 50 kt, 93 km/h Moderate tropical storm 29/11/2004 0600
16.64 75.05 2.5 997 35 kt, 65 km/h 50 kt, 93 km/h Moderate tropical storm 29/11/2004 1200
16.78 74.21 2.5 997 35 kt, 65 km/h 50 kt, 93 km/h Moderate tropical storm 29/11/2004 1800
16.99 73.52 2.5 998 33 kt, 61 km/h 45 kt, 83 km/h Tropical depression 30/11/2004 0000
17.36 72.49 2.5 1000 30 kt, 56 km/h 40 kt, 74 km/h Tropical depression 30/11/2004 0600
17.69 71.48 2.5 1001 30 kt, 56 km/h 40 kt, 74 km/h Tropical depression 30/11/2004 1200
17.9 70.46 2 1003 27 kt, 50 km/h 40 kt, 74 km/h Tropical disturbance 30/11/2004 1800
17.98 69.53 2 1004 25 kt, 46 km/h 35 kt, 65 km/h Tropical disturbance 01/12/2004 0000
18.01 68.66 2 1005 25 kt, 46 km/h 35 kt, 65 km/h Tropical disturbance 01/12/2004 0600
17.9 67.83 2 1006 25 kt, 46 km/h 35 kt, 65 km/h Tropical disturbance 01/12/2004 1200
17.76 66.75 2 1007 25 kt, 46 km/h 35 kt, 65 km/h Tropical disturbance 01/12/2004 1800
17.71 65.81 2 1008 25 kt, 46 km/h 35 kt, 65 km/h Tropical disturbance 02/12/2004 0000
17.66 64.3 1.5 1009 25 kt, 46 km/h 35 kt, 65 km/h Depression filling up 02/12/2004 0600
17.59 62.52 1.5 1010 25 kt, 46 km/h 35 kt, 65 km/h Depression filling up 02/12/2004 1200
17.49 60.73 1.5 1011 20 kt, 37 km/h 30 kt, 56 km/h Depression filling up 02/12/2004 1800
17.43 58.87 1.5 1011 20 kt, 37 km/h 30 kt, 56 km/h Depression filling up 03/12/2004 0000
17.35 57.12 1.5 1012 20 kt, 37 km/h 30 kt, 56 km/h Depression filling up 03/12/2004 0600
17.1 55.72 1.5 1012 20 kt, 37 km/h 30 kt, 56 km/h Depression filling up 03/12/2004 1200
16.88 54.06 1013 Depression filling up 03/12/2004 1800
16.62 52.46 1013 Depression filling up 04/12/2004 0000
16.3 51.13 1013 Depression filling up 04/12/2004 0600